Trinidad, Colorado
Current Conditions -  °F | °C
As of 2:54 AM on Friday 31 Oct 2014 (Local Time) from KTAD Reporting Station
Clear Clear  
Wind Chill: 30°   Ceiling: Unl
Heat Index: 36°   Visibility: 10mi
Dew Point: 22°   Wind: 7mph
Humidity: 57%   Direction: 280°W
Pressure: 30.42"   Gusts: NA
Location:  37.17°N, 104.51°W
Report Text: KTAD 310854Z AUTO 28006KT 10SM CLR 02/M06 A3042 RMK AO2 SLP270 T00221056 58004
Loading
Personal Weather Stations






























Interactive Weather Map
Tropical Storm Tracking
New forecast layout! Learn more

10-Day Weather Forecast

Advertisements
Track Severe Weather on mobile